createdAt,value
2022-12-22T00:02:36.393Z,168.90
2022-12-22T00:05:30.622Z,289.63
2022-12-22T00:08:16.078Z,182.17
2022-12-22T00:11:01.224Z,242.10
2022-12-22T00:13:47.888Z,169.63
2022-12-22T00:16:33.372Z,165.73
2022-12-22T00:19:18.506Z,172.97
2022-12-22T00:22:03.546Z,199.23
2022-12-22T00:24:48.792Z,248.63
2022-12-22T00:27:46.730Z,334.53
2022-12-22T00:30:34.832Z,230.67
2022-12-22T00:33:21.441Z,111.83
2022-12-22T00:36:06.724Z,139.13
2022-12-22T00:38:52.619Z,200.87
2022-12-22T00:41:38.782Z,191.67
2022-12-22T00:44:24.627Z,243.43
2022-12-22T00:47:11.405Z,201.17
2022-12-22T00:49:59.215Z,149.67
2022-12-22T00:52:44.422Z,140.87
2022-12-22T00:55:34.452Z,201.63
2022-12-22T00:58:20.909Z,237.00
2022-12-22T01:01:06.142Z,245.97
2022-12-22T01:03:52.407Z,216.70
2022-12-22T01:06:38.186Z,172.23
2022-12-22T01:09:23.614Z,207.00
2022-12-22T01:12:09.146Z,105.20
2022-12-22T01:14:54.466Z,133.07
2022-12-22T01:17:39.509Z,247.90
2022-12-22T01:20:27.040Z,155.40
2022-12-22T01:23:12.520Z,185.23
2022-12-22T01:25:57.476Z,183.33
2022-12-22T01:28:42.932Z,152.53
2022-12-22T01:31:36.319Z,167.77
2022-12-22T01:34:21.582Z,170.90
2022-12-22T01:37:07.854Z,237.13
2022-12-22T01:39:53.241Z,157.90
2022-12-22T01:42:38.193Z,129.83
2022-12-22T01:45:38.750Z,174.10
2022-12-22T01:48:23.930Z,138.87
2022-12-22T01:51:09.108Z,197.17
2022-12-22T01:53:55.780Z,119.07
2022-12-22T01:56:41.742Z,164.13
2022-12-22T01:59:27.270Z,148.87
2022-12-22T02:02:12.640Z,179.90
2022-12-22T02:05:02.231Z,141.83
2022-12-22T02:08:02.065Z,128.37
2022-12-22T02:11:02.987Z,194.97
2022-12-22T02:13:55.788Z,254.80
2022-12-22T02:16:49.348Z,205.47
2022-12-22T02:19:54.276Z,193.43
2022-12-22T02:22:47.958Z,193.40
2022-12-22T02:25:37.481Z,230.17
2022-12-22T02:28:25.126Z,189.93
2022-12-22T02:31:11.467Z,163.93
2022-12-22T02:33:56.681Z,117.63
2022-12-22T02:36:50.214Z,211.67
2022-12-22T02:39:43.106Z,259.13
2022-12-22T02:42:37.731Z,207.60
2022-12-22T02:45:31.972Z,134.47
2022-12-22T02:48:23.031Z,221.23
2022-12-22T02:51:14.332Z,179.70
2022-12-22T02:53:59.669Z,194.50
2022-12-22T02:56:44.733Z,174.00
2022-12-22T02:59:29.966Z,188.10
2022-12-22T03:02:16.412Z,223.23
2022-12-22T03:05:01.841Z,208.93
2022-12-22T03:07:47.008Z,216.60
2022-12-22T03:10:32.370Z,146.87
2022-12-22T03:13:18.057Z,236.90
2022-12-22T03:16:03.243Z,166.50
2022-12-22T03:18:49.855Z,155.40
2022-12-22T03:21:34.961Z,120.33
2022-12-22T03:24:20.287Z,99.17
2022-12-22T03:26:47.789Z,139.17
2022-12-22T03:29:15.366Z,97.07
2022-12-22T03:31:42.886Z,56.50
2022-12-22T03:34:11.774Z,68.30
2022-12-22T03:36:39.285Z,72.60
2022-12-22T03:39:06.982Z,65.93
2022-12-22T03:41:52.073Z,66.90
2022-12-22T03:44:37.552Z,38.70
2022-12-22T03:47:05.215Z,43.53
2022-12-22T03:49:34.119Z,66.47
2022-12-22T03:52:01.609Z,72.23
2022-12-22T03:54:29.096Z,57.40
2022-12-22T03:56:56.627Z,62.43
2022-12-22T03:59:24.249Z,59.43
2022-12-22T04:01:53.699Z,64.63
2022-12-22T04:04:23.561Z,65.83
2022-12-22T04:06:52.533Z,84.17
2022-12-22T04:09:20.174Z,72.67
2022-12-22T04:12:05.490Z,78.60
2022-12-22T04:14:34.744Z,109.73
2022-12-22T04:17:02.699Z,79.13
2022-12-22T04:19:30.260Z,77.80
2022-12-22T04:21:59.136Z,116.73
2022-12-22T04:24:26.704Z,92.57
2022-12-22T04:26:54.366Z,84.77
2022-12-22T04:29:21.894Z,123.90
2022-12-22T04:31:49.575Z,73.43
2022-12-22T04:34:17.121Z,105.30
2022-12-22T04:36:44.608Z,71.27
2022-12-22T04:39:13.542Z,92.27
2022-12-22T04:41:41.030Z,104.90
2022-12-22T04:44:08.510Z,98.37
2022-12-22T04:46:36.005Z,132.33
2022-12-22T04:49:03.529Z,80.30
2022-12-22T04:51:31.058Z,103.60
2022-12-22T04:53:58.561Z,49.57
2022-12-22T04:56:27.356Z,72.97
2022-12-22T04:58:54.848Z,66.60
2022-12-22T05:01:22.535Z,64.90
2022-12-22T05:03:50.200Z,112.60
2022-12-22T05:06:17.786Z,71.43
2022-12-22T05:08:45.299Z,66.83
2022-12-22T05:11:13.016Z,62.93
2022-12-22T05:13:41.879Z,94.03
2022-12-22T05:16:11.030Z,122.90
2022-12-22T05:18:41.204Z,84.80
2022-12-22T05:21:10.966Z,131.53
2022-12-22T05:23:38.511Z,156.97
2022-12-22T05:26:06.428Z,121.10
2022-12-22T05:28:34.004Z,120.73
2022-12-22T05:31:05.960Z,158.50
2022-12-22T05:33:33.652Z,81.23
2022-12-22T05:36:01.184Z,126.80
2022-12-22T05:38:28.678Z,140.67
2022-12-22T05:41:03.659Z,216.47
2022-12-22T05:43:32.170Z,226.03
2022-12-22T05:46:02.867Z,115.20
2022-12-22T05:48:37.447Z,134.70
2022-12-22T05:51:06.158Z,179.70
2022-12-22T05:53:34.729Z,229.53
2022-12-22T05:56:02.245Z,162.27
2022-12-22T05:58:29.738Z,105.83
2022-12-22T06:00:58.624Z,83.07
2022-12-22T06:03:26.554Z,157.03
2022-12-22T06:05:55.741Z,139.50
2022-12-22T06:08:23.595Z,257.27
2022-12-22T06:10:51.477Z,167.73
2022-12-22T06:13:18.960Z,190.93
2022-12-22T06:15:46.447Z,193.27
2022-12-22T06:18:13.967Z,160.00
2022-12-22T06:20:41.451Z,194.23
2022-12-22T06:23:10.307Z,95.93
2022-12-22T06:25:37.795Z,121.13
2022-12-22T06:28:05.701Z,239.30
2022-12-22T06:30:33.940Z,306.67
2022-12-22T06:33:01.787Z,206.70
2022-12-22T06:35:29.670Z,111.07
2022-12-22T06:37:57.155Z,166.23
2022-12-22T06:40:25.978Z,65.07
2022-12-22T06:43:11.069Z,118.23
2022-12-22T06:45:41.336Z,34.37
2022-12-22T06:48:10.589Z,118.67
2022-12-22T06:50:38.078Z,140.97
2022-12-22T06:53:06.225Z,236.07
2022-12-22T06:55:35.172Z,176.43
2022-12-22T06:58:02.823Z,197.10
2022-12-22T07:00:30.741Z,191.77
2022-12-22T07:02:58.416Z,236.33
2022-12-22T07:05:26.113Z,145.33
2022-12-22T07:07:53.942Z,244.00
2022-12-22T07:10:41.532Z,226.47
2022-12-22T07:13:20.269Z,91.30
2022-12-22T07:15:53.850Z,83.27
2022-12-22T07:18:25.151Z,43.97
2022-12-22T07:20:52.657Z,42.27
2022-12-22T07:23:20.130Z,28.37
2022-12-22T07:25:47.602Z,27.43
2022-12-22T07:28:20.706Z,27.30
2022-12-22T07:30:49.256Z,25.63
2022-12-22T07:33:16.838Z,28.20
2022-12-22T07:35:44.440Z,56.87
2022-12-22T07:38:12.150Z,262.80
2022-12-22T07:40:42.360Z,164.37
2022-12-22T07:43:09.623Z,272.57
2022-12-22T07:45:39.292Z,230.30
2022-12-22T07:48:27.328Z,278.37
2022-12-22T07:50:54.184Z,199.67
2022-12-22T07:53:21.664Z,106.67
2022-12-22T07:55:49.146Z,118.47
2022-12-22T07:58:16.641Z,54.70
2022-12-22T08:00:45.482Z,165.17
2022-12-22T08:03:13.152Z,191.87
2022-12-22T08:05:40.821Z,224.17
2022-12-22T08:08:08.306Z,169.57
2022-12-22T08:10:35.769Z,405.20
2022-12-22T08:13:03.322Z,225.47
2022-12-22T08:15:30.822Z,276.03
2022-12-22T08:17:59.620Z,284.63
2022-12-22T08:20:27.180Z,337.00
2022-12-22T08:22:57.168Z,152.67
2022-12-22T08:25:24.756Z,135.40
2022-12-22T08:27:55.219Z,121.67
2022-12-22T08:30:22.735Z,20.27
2022-12-22T08:32:52.072Z,15.53
2022-12-22T08:35:21.252Z,21.50
2022-12-22T08:37:49.353Z,109.00
2022-12-22T08:40:22.299Z,159.83
2022-12-22T08:42:52.944Z,45.07
2022-12-22T08:45:20.443Z,23.07
2022-12-22T08:47:47.916Z,27.83
2022-12-22T08:50:15.508Z,62.67
2022-12-22T08:52:44.361Z,146.00
2022-12-22T08:55:12.046Z,202.90
2022-12-22T08:57:39.515Z,61.57
2022-12-22T09:00:09.091Z,27.87
2022-12-22T09:02:38.462Z,12.03
2022-12-22T09:05:06.414Z,10.33
2022-12-22T09:07:33.901Z,15.17
2022-12-22T09:10:02.714Z,27.67
2022-12-22T09:12:30.411Z,35.90
2022-12-22T09:14:58.511Z,75.43
2022-12-22T09:17:26.098Z,125.50
2022-12-22T09:19:53.583Z,168.17
2022-12-22T09:22:28.209Z,106.30
2022-12-22T09:24:56.218Z,92.70
2022-12-22T09:27:25.060Z,37.83
2022-12-22T09:29:52.601Z,41.37
2022-12-22T09:32:20.174Z,179.10
2022-12-22T09:34:48.727Z,223.85
2022-12-22T09:37:16.766Z,177.15
2022-12-22T09:39:44.376Z,52.78
2022-12-22T09:42:15.703Z,33.92
2022-12-22T09:44:46.317Z,37.45
2022-12-22T09:47:19.391Z,21.95
2022-12-22T09:49:47.025Z,25.27
2022-12-22T09:52:25.229Z,33.63
2022-12-22T09:54:52.916Z,47.60
2022-12-22T09:57:20.531Z,51.83
2022-12-22T09:59:49.467Z,60.58
2022-12-22T10:02:26.680Z,50.38
2022-12-22T10:05:02.363Z,41.10
2022-12-22T10:07:33.284Z,61.63
2022-12-22T10:10:06.611Z,6.90
2022-12-22T10:12:34.318Z,8.20
2022-12-22T10:15:03.192Z,16.95
2022-12-22T10:17:32.850Z,12.98
2022-12-22T10:20:21.973Z,11.03
2022-12-22T10:22:52.068Z,23.50
2022-12-22T10:25:45.045Z,18.70
2022-12-22T10:28:21.634Z,24.63
2022-12-22T10:30:50.702Z,12.18
2022-12-22T10:33:19.993Z,39.67
2022-12-22T10:35:50.726Z,18.27
2022-12-22T10:38:25.524Z,7.03
2022-12-22T10:41:01.572Z,4.68
2022-12-22T10:43:32.602Z,8.55
2022-12-22T10:46:03.332Z,99.65
2022-12-22T10:48:33.384Z,33.67
2022-12-22T10:51:02.620Z,14.82
2022-12-22T10:53:49.758Z,18.88
2022-12-22T10:56:26.787Z,27.95
2022-12-22T10:58:56.547Z,25.27
2022-12-22T11:01:28.728Z,55.20
2022-12-22T11:03:56.478Z,25.13
2022-12-22T11:06:24.136Z,41.15
2022-12-22T11:08:52.185Z,185.43
2022-12-22T11:11:36.629Z,227.43
2022-12-22T11:14:16.437Z,264.05
2022-12-22T11:16:51.797Z,479.05
2022-12-22T11:19:45.971Z,266.88
2022-12-22T11:22:25.778Z,409.98
2022-12-22T11:25:04.894Z,63.15
2022-12-22T11:27:45.981Z,34.63
2022-12-22T11:30:19.207Z,61.25
2022-12-22T11:33:01.509Z,34.30
2022-12-22T11:35:43.231Z,56.93
2022-12-22T11:38:20.863Z,17.80
2022-12-22T11:40:50.910Z,21.15
2022-12-22T11:43:24.668Z,19.27
2022-12-22T11:46:03.992Z,26.95
2022-12-22T11:49:01.466Z,12.48
2022-12-22T11:51:46.235Z,20.60
2022-12-22T11:54:38.248Z,22.92
2022-12-22T11:57:18.451Z,25.73
2022-12-22T11:59:54.701Z,14.52
2022-12-22T12:02:55.352Z,11.88
2022-12-22T12:05:45.209Z,28.83
2022-12-22T12:08:26.688Z,15.38
2022-12-22T12:10:58.843Z,29.23
2022-12-22T12:13:37.505Z,14.65
2022-12-22T12:16:18.297Z,13.55
2022-12-22T12:19:12.870Z,12.45
2022-12-22T12:21:47.037Z,8.00
2022-12-22T12:24:31.358Z,12.70
2022-12-22T12:27:08.375Z,61.57
2022-12-22T12:29:41.391Z,42.23
2022-12-22T12:32:16.382Z,26.23
2022-12-22T12:34:47.778Z,18.65
2022-12-22T12:37:26.561Z,16.80
2022-12-22T12:40:07.813Z,20.37
2022-12-22T12:42:38.629Z,27.55
2022-12-22T12:45:34.665Z,22.55
2022-12-22T12:48:35.854Z,19.60
2022-12-22T12:51:03.365Z,47.83
2022-12-22T12:53:31.518Z,37.47
2022-12-22T12:56:07.598Z,49.60
2022-12-22T12:58:54.801Z,188.20
2022-12-22T13:01:57.298Z,83.77
2022-12-22T13:05:12.337Z,54.20
2022-12-22T13:08:14.222Z,3.73
2022-12-22T13:10:44.775Z,8.17
2022-12-22T13:13:29.777Z,9.20
2022-12-22T13:16:22.579Z,12.67
2022-12-22T13:18:51.558Z,17.37
2022-12-22T13:24:25.708Z,94.37
2022-12-22T13:26:56.154Z,83.47
2022-12-22T13:29:41.537Z,44.90
2022-12-22T13:32:20.281Z,17.17
2022-12-22T13:37:43.809Z,13.37
2022-12-22T13:40:18.093Z,12.43
2022-12-22T13:42:48.877Z,20.33
2022-12-22T13:45:27.025Z,57.70
2022-12-22T13:47:54.994Z,31.23
2022-12-22T13:50:26.610Z,24.93
2022-12-22T13:52:57.018Z,42.60
2022-12-22T13:55:27.037Z,50.72
2022-12-22T13:57:58.607Z,55.40
2022-12-22T14:00:30.538Z,52.60
2022-12-22T14:02:58.188Z,63.13
2022-12-22T14:05:31.740Z,42.70
2022-12-22T14:08:01.379Z,79.67
2022-12-22T14:10:33.704Z,84.53
2022-12-22T14:13:06.840Z,56.23
2022-12-22T14:15:35.957Z,73.80
2022-12-22T14:18:03.766Z,92.30
2022-12-22T14:20:36.387Z,111.20
2022-12-22T14:23:08.971Z,102.97
2022-12-22T14:25:39.574Z,89.73
2022-12-22T14:28:09.593Z,95.40
2022-12-22T14:30:42.864Z,68.23
2022-12-22T14:33:29.869Z,71.60
2022-12-22T14:36:15.285Z,73.17
2022-12-22T14:38:44.452Z,68.47
2022-12-22T14:41:38.405Z,69.40
2022-12-22T14:44:06.315Z,62.93
2022-12-22T14:46:38.897Z,101.27
2022-12-22T14:49:07.079Z,93.93
2022-12-22T14:51:34.683Z,88.53
2022-12-22T14:54:03.538Z,52.10
2022-12-22T14:56:31.354Z,78.43
2022-12-22T14:59:11.231Z,76.77
2022-12-22T15:01:40.344Z,69.27
2022-12-22T15:04:16.360Z,71.73
2022-12-22T15:06:45.909Z,63.77
2022-12-22T15:12:18.237Z,69.87
2022-12-22T15:14:48.729Z,91.80
2022-12-22T15:17:22.990Z,41.97
2022-12-22T15:19:51.616Z,63.23
2022-12-22T15:22:19.194Z,23.23
2022-12-22T15:24:47.846Z,51.40
2022-12-22T15:27:15.380Z,48.17
2022-12-22T15:29:42.868Z,24.40
2022-12-22T15:32:12.341Z,92.27
2022-12-22T15:34:41.226Z,41.43
2022-12-22T15:37:12.835Z,74.50
2022-12-22T15:39:40.547Z,57.67
2022-12-22T15:42:08.287Z,96.70
2022-12-22T15:44:38.883Z,86.10
2022-12-22T15:47:07.359Z,63.93
2022-12-22T15:49:34.896Z,58.93
2022-12-22T15:52:07.061Z,86.53
2022-12-22T15:54:34.622Z,78.07
2022-12-22T15:57:02.717Z,91.47
2022-12-22T15:59:30.901Z,43.27
2022-12-22T16:02:01.927Z,93.40
2022-12-22T16:04:29.769Z,97.07
2022-12-22T16:06:57.923Z,60.27
2022-12-22T16:09:32.449Z,14.60
2022-12-22T16:11:59.986Z,67.30
2022-12-22T16:14:27.539Z,42.03
2022-12-22T16:16:56.368Z,112.30
2022-12-22T16:19:23.849Z,103.67
2022-12-22T16:21:54.157Z,79.20
2022-12-22T16:24:28.700Z,35.00
2022-12-22T16:26:57.797Z,50.50
2022-12-22T16:29:26.433Z,71.50
2022-12-22T16:31:54.853Z,85.43
2022-12-22T16:34:22.429Z,79.63
2022-12-22T16:36:49.895Z,60.07
2022-12-22T16:39:17.666Z,71.03
2022-12-22T16:41:46.560Z,68.30
2022-12-22T16:47:18.158Z,78.23
2022-12-22T16:49:47.252Z,59.70
2022-12-22T16:52:19.464Z,84.77
2022-12-22T16:54:52.446Z,64.27
2022-12-22T16:57:21.627Z,88.90
2022-12-22T16:59:49.101Z,95.00
2022-12-22T17:02:24.929Z,64.83
2022-12-22T17:04:54.460Z,77.80
2022-12-22T17:07:22.287Z,45.20
2022-12-22T17:09:54.398Z,16.40
2022-12-22T17:12:27.343Z,45.70
2022-12-22T17:14:57.074Z,26.40
2022-12-22T17:17:31.914Z,22.33
2022-12-22T17:20:01.715Z,70.93
2022-12-22T17:22:31.540Z,12.13
2022-12-22T17:25:02.961Z,61.43
2022-12-22T17:27:33.270Z,8.50
2022-12-22T17:30:03.342Z,27.30
2022-12-22T17:32:30.831Z,27.13
2022-12-22T17:34:58.333Z,34.97
2022-12-22T17:37:26.232Z,19.13
2022-12-22T17:40:01.094Z,13.07
2022-12-22T17:42:31.249Z,11.23
2022-12-22T17:45:00.234Z,26.80
2022-12-22T17:47:33.296Z,34.03
2022-12-22T17:50:02.414Z,53.47
2022-12-22T17:52:29.937Z,11.97
2022-12-22T17:54:57.643Z,32.13
2022-12-22T17:57:28.626Z,69.97
2022-12-22T17:59:56.169Z,72.30
2022-12-22T18:02:26.288Z,35.17
2022-12-22T18:04:54.321Z,41.17
2022-12-22T18:07:24.220Z,42.63
2022-12-22T18:10:00.687Z,74.53
2022-12-22T18:12:29.743Z,62.33
2022-12-22T18:14:57.232Z,27.10
2022-12-22T18:17:35.150Z,79.50
2022-12-22T18:20:03.481Z,50.43
2022-12-22T18:22:31.038Z,41.07
2022-12-22T18:24:58.667Z,16.53
2022-12-22T18:27:26.133Z,12.57
2022-12-22T18:29:53.649Z,17.60
2022-12-22T18:32:27.504Z,33.17
2022-12-22T18:34:56.819Z,41.97
2022-12-22T18:37:24.336Z,68.17
2022-12-22T18:39:51.878Z,17.10
2022-12-22T18:42:21.697Z,16.70
2022-12-22T18:44:49.682Z,12.40
2022-12-22T18:47:17.880Z,59.63
2022-12-22T18:49:45.745Z,53.10
2022-12-22T18:52:19.221Z,32.83
2022-12-22T18:54:47.350Z,60.53
2022-12-22T18:57:17.076Z,69.33
2022-12-22T18:59:46.011Z,62.33
2022-12-22T19:02:22.725Z,51.57
2022-12-22T19:04:51.290Z,10.60
2022-12-22T19:07:23.244Z,14.90
2022-12-22T19:09:51.082Z,16.27
2022-12-22T19:12:20.613Z,38.13
2022-12-22T19:14:51.196Z,10.60
2022-12-22T19:17:22.177Z,13.03
2022-12-22T19:19:49.717Z,18.00
2022-12-22T19:22:17.470Z,12.40
2022-12-22T19:24:46.274Z,11.33
2022-12-22T19:27:17.553Z,29.60
2022-12-22T19:29:45.721Z,67.87
2022-12-22T19:32:23.615Z,26.63
2022-12-22T19:34:51.502Z,16.23
2022-12-22T19:37:19.360Z,18.47
2022-12-22T19:39:48.345Z,16.73
2022-12-22T19:42:17.969Z,16.20
2022-12-22T19:44:45.615Z,23.50
2022-12-22T19:47:18.682Z,94.77
2022-12-22T19:49:46.373Z,23.87
2022-12-22T19:52:13.885Z,32.10
2022-12-22T19:54:41.505Z,30.60
2022-12-22T19:57:18.478Z,48.40
2022-12-22T19:59:49.798Z,44.63
2022-12-22T20:02:27.174Z,49.47
2022-12-22T20:04:55.989Z,138.90
2022-12-22T20:07:27.164Z,108.50
2022-12-22T20:09:55.065Z,102.77
2022-12-22T20:12:32.661Z,103.57
2022-12-22T20:15:01.022Z,108.43
2022-12-22T20:17:28.783Z,66.60
2022-12-22T20:19:56.270Z,60.27
2022-12-22T20:22:24.753Z,56.10
2022-12-22T20:24:54.408Z,43.57
2022-12-22T20:27:25.173Z,46.50
2022-12-22T20:29:52.689Z,82.13
2022-12-22T20:32:27.378Z,69.53
2022-12-22T20:34:55.288Z,75.57
2022-12-22T20:37:22.917Z,49.43
2022-12-22T20:39:50.410Z,96.33
2022-12-22T20:42:19.846Z,90.73
2022-12-22T20:45:02.392Z,54.63
2022-12-22T20:47:33.073Z,53.43
2022-12-22T20:50:00.669Z,83.37
2022-12-22T20:52:28.170Z,26.63
2022-12-22T20:54:55.663Z,26.27
2022-12-22T20:57:24.348Z,40.60
2022-12-22T20:59:56.498Z,57.63
2022-12-22T21:02:27.745Z,26.47
2022-12-22T21:04:55.920Z,33.73
2022-12-22T21:07:23.512Z,63.93
2022-12-22T21:09:51.027Z,59.60
2022-12-22T21:12:18.497Z,69.70
2022-12-22T21:14:46.030Z,36.00
2022-12-22T21:17:17.319Z,47.73
2022-12-22T21:19:44.991Z,68.67
2022-12-22T21:22:12.837Z,66.53
2022-12-22T21:24:41.549Z,56.73
2022-12-22T21:27:16.197Z,83.00
2022-12-22T21:29:43.691Z,40.60
2022-12-22T21:32:16.152Z,55.43
2022-12-22T21:34:43.612Z,26.53
2022-12-22T21:37:18.514Z,27.40
2022-12-22T21:39:46.352Z,31.90
2022-12-22T21:42:16.102Z,61.13
2022-12-22T21:44:44.591Z,77.03
2022-12-22T21:47:14.555Z,64.40
2022-12-22T21:49:43.454Z,92.03
2022-12-22T21:52:10.961Z,80.80
2022-12-22T21:54:38.503Z,53.73
2022-12-22T21:57:06.046Z,51.43
2022-12-22T21:59:33.551Z,39.13
2022-12-22T22:02:01.367Z,67.83
2022-12-22T22:04:29.055Z,75.03
2022-12-22T22:06:57.905Z,74.00
2022-12-22T22:09:25.458Z,65.90
2022-12-22T22:12:10.697Z,95.20
2022-12-22T22:14:38.344Z,69.43
2022-12-22T22:17:05.820Z,89.87
2022-12-22T22:19:33.409Z,64.70
2022-12-22T22:22:02.215Z,35.87
2022-12-22T22:24:31.705Z,40.87
2022-12-22T22:26:59.824Z,37.13
2022-12-22T22:29:27.296Z,39.27
2022-12-22T22:31:54.769Z,158.20
2022-12-22T22:34:22.236Z,51.30
2022-12-22T22:36:49.733Z,109.87
2022-12-22T22:39:18.590Z,88.90
2022-12-22T22:41:46.089Z,40.43
2022-12-22T22:44:13.693Z,29.23
2022-12-22T22:46:41.754Z,19.77
2022-12-22T22:49:09.421Z,20.77
2022-12-22T22:51:36.902Z,19.37
2022-12-22T22:54:04.598Z,17.27
2022-12-22T22:56:33.515Z,19.87
2022-12-22T22:59:01.007Z,17.33
2022-12-22T23:01:28.657Z,18.63
2022-12-22T23:03:56.267Z,16.27
2022-12-22T23:06:23.904Z,20.33
2022-12-22T23:08:52.092Z,19.63
2022-12-22T23:11:19.607Z,16.23
2022-12-22T23:13:48.458Z,15.87
2022-12-22T23:16:16.174Z,19.50
2022-12-22T23:18:43.681Z,17.17
2022-12-22T23:21:12.314Z,23.37
2022-12-22T23:23:39.850Z,163.83
2022-12-22T23:26:07.515Z,115.53
2022-12-22T23:28:35.364Z,122.10
2022-12-22T23:31:04.512Z,144.43
2022-12-22T23:33:33.140Z,144.60
2022-12-22T23:36:00.879Z,170.73
2022-12-22T23:38:28.372Z,122.60
2022-12-22T23:41:03.132Z,142.10
2022-12-22T23:43:30.772Z,172.83
2022-12-22T23:45:58.639Z,171.17
2022-12-22T23:48:27.483Z,184.97
2022-12-22T23:50:55.041Z,158.97
2022-12-22T23:53:22.599Z,181.27
2022-12-22T23:55:50.720Z,158.53
2022-12-22T23:58:18.820Z,166.83
